createdAt,value
2022-09-27T00:01:02.324Z,9.73
2022-09-27T00:03:31.264Z,9.53
2022-09-27T00:06:03.323Z,9.23
2022-09-27T00:08:31.948Z,9.83
2022-09-27T00:11:01.030Z,10.50
2022-09-27T00:13:29.544Z,10.37
2022-09-27T00:15:59.974Z,10.50
2022-09-27T00:18:28.090Z,9.30
2022-09-27T00:20:55.927Z,9.90
2022-09-27T00:23:23.693Z,8.93
2022-09-27T00:25:58.310Z,9.27
2022-09-27T00:28:26.428Z,9.13
2022-09-27T00:30:54.613Z,8.93
2022-09-27T00:33:23.746Z,8.37
2022-09-27T00:35:51.535Z,8.17
2022-09-27T00:38:19.418Z,8.63
2022-09-27T00:40:47.191Z,9.30
2022-09-27T00:43:17.256Z,8.23
2022-09-27T00:45:46.119Z,8.77
2022-09-27T00:48:16.746Z,8.57
2022-09-27T00:50:48.009Z,8.87
2022-09-27T00:53:18.825Z,8.13
2022-09-27T00:55:50.523Z,9.63
2022-09-27T00:58:20.962Z,8.77
2022-09-27T01:00:50.695Z,10.90
2022-09-27T01:03:24.285Z,10.23
2022-09-27T01:05:53.637Z,10.20
2022-09-27T01:08:22.533Z,11.20
2022-09-27T01:10:55.115Z,10.63
2022-09-27T01:13:26.338Z,10.17
2022-09-27T01:15:59.897Z,10.17
2022-09-27T01:18:31.731Z,10.30
2022-09-27T01:21:25.212Z,11.63
2022-09-27T01:24:19.211Z,11.63
2022-09-27T01:26:56.816Z,10.47
2022-09-27T01:29:29.762Z,9.80
2022-09-27T01:32:04.383Z,17.07
2022-09-27T01:34:36.331Z,12.43
2022-09-27T01:37:09.885Z,10.47
2022-09-27T01:39:44.248Z,11.30
2022-09-27T01:42:15.526Z,11.00
2022-09-27T01:44:48.516Z,10.63
2022-09-27T01:47:18.968Z,10.67
2022-09-27T01:49:49.988Z,9.80
2022-09-27T01:52:19.629Z,11.30
2022-09-27T01:54:49.930Z,11.60
2022-09-27T01:57:20.425Z,12.27
2022-09-27T01:59:51.071Z,11.57
2022-09-27T02:02:23.788Z,11.73
2022-09-27T02:04:54.031Z,11.57
2022-09-27T02:07:25.201Z,10.83
2022-09-27T02:09:54.656Z,12.90
2022-09-27T02:12:24.662Z,12.73
2022-09-27T02:14:55.252Z,12.50
2022-09-27T02:17:26.348Z,12.57
2022-09-27T02:19:58.138Z,11.83
2022-09-27T02:22:31.763Z,11.93
2022-09-27T02:25:02.844Z,11.77
2022-09-27T02:27:31.548Z,12.80
2022-09-27T02:30:01.948Z,12.60
2022-09-27T02:32:32.349Z,11.40
2022-09-27T02:35:02.444Z,12.40
2022-09-27T02:37:30.608Z,12.33
2022-09-27T02:39:58.745Z,10.43
2022-09-27T02:42:26.918Z,7.83
2022-09-27T02:44:54.951Z,11.53
2022-09-27T02:47:31.300Z,12.03
2022-09-27T02:50:09.944Z,11.43
2022-09-27T02:52:44.382Z,11.33
2022-09-27T02:55:14.506Z,11.53
2022-09-27T02:57:47.301Z,11.33
2022-09-27T03:00:18.209Z,14.83
2022-09-27T03:02:51.916Z,14.17
2022-09-27T03:05:22.876Z,12.43
2022-09-27T03:07:51.779Z,12.83
2022-09-27T03:10:20.517Z,13.33
2022-09-27T03:12:48.420Z,12.37
2022-09-27T03:15:16.300Z,13.50
2022-09-27T03:17:44.656Z,10.17
2022-09-27T03:20:12.620Z,10.73
2022-09-27T03:22:42.404Z,12.13
2022-09-27T03:25:11.341Z,11.13
2022-09-27T03:27:39.453Z,11.50
2022-09-27T03:30:07.716Z,11.60
2022-09-27T03:32:35.392Z,10.93
2022-09-27T03:35:04.280Z,12.00
2022-09-27T03:37:32.697Z,14.30
2022-09-27T03:40:01.891Z,13.87
2022-09-27T03:42:29.826Z,13.60
2022-09-27T03:44:57.600Z,14.17
2022-09-27T03:47:25.697Z,14.10
2022-09-27T03:49:53.492Z,13.60
2022-09-27T03:52:21.250Z,13.87
2022-09-27T03:54:49.050Z,13.37
2022-09-27T03:57:18.236Z,15.07
2022-09-27T03:59:46.318Z,13.07
2022-09-27T04:02:14.385Z,12.97
2022-09-27T04:04:42.324Z,12.93
2022-09-27T04:07:11.277Z,14.20
2022-09-27T04:09:43.893Z,15.60
2022-09-27T04:12:12.565Z,13.73
2022-09-27T04:14:41.906Z,14.97
2022-09-27T04:17:10.092Z,14.43
2022-09-27T04:19:38.202Z,13.80
2022-09-27T04:22:06.203Z,13.90
2022-09-27T04:24:36.180Z,14.27
2022-09-27T04:27:04.305Z,14.33
2022-09-27T04:29:32.399Z,15.00
2022-09-27T04:32:01.953Z,14.03
2022-09-27T04:34:46.028Z,13.80
2022-09-27T04:37:14.217Z,14.27
2022-09-27T04:39:41.922Z,14.27
2022-09-27T04:42:10.013Z,14.77
2022-09-27T04:44:37.981Z,13.97
2022-09-27T04:49:37.545Z,14.23
2022-09-27T04:52:06.122Z,12.97
2022-09-27T04:54:35.373Z,12.30
2022-09-27T04:57:03.304Z,13.43
2022-09-27T04:59:32.094Z,12.23
2022-09-27T05:02:01.096Z,11.43
2022-09-27T05:04:30.486Z,12.53
2022-09-27T05:06:58.483Z,11.63
2022-09-27T05:09:26.507Z,12.37
2022-09-27T05:11:54.262Z,12.90
2022-09-27T05:14:22.010Z,12.70
2022-09-27T05:16:50.248Z,12.80
2022-09-27T05:19:17.992Z,13.67
2022-09-27T05:21:47.543Z,14.03
2022-09-27T05:24:15.291Z,16.17
2022-09-27T05:26:43.608Z,13.80
2022-09-27T05:29:11.684Z,17.57
2022-09-27T05:31:40.604Z,17.37
2022-09-27T05:34:10.862Z,15.20
2022-09-27T05:36:38.752Z,14.80
2022-09-27T05:39:08.216Z,16.70
2022-09-27T05:41:36.297Z,13.80
2022-09-27T05:44:04.249Z,15.33
2022-09-27T05:46:32.231Z,15.43
2022-09-27T05:49:00.293Z,17.87
2022-09-27T05:51:28.452Z,17.43
2022-09-27T05:53:56.530Z,17.17
2022-09-27T05:56:26.097Z,16.80
2022-09-27T05:58:53.979Z,17.60
2022-09-27T06:01:21.792Z,19.83
2022-09-27T06:03:50.168Z,18.47
2022-09-27T06:06:18.300Z,17.63
2022-09-27T06:08:46.662Z,19.63
2022-09-27T06:11:14.820Z,20.53
2022-09-27T06:13:44.515Z,14.87
2022-09-27T06:16:12.865Z,16.87
2022-09-27T06:18:40.660Z,19.50
2022-09-27T06:21:08.607Z,21.90
2022-09-27T06:23:36.547Z,18.80
2022-09-27T06:26:05.611Z,19.27
2022-09-27T06:28:35.140Z,21.37
2022-09-27T06:31:06.685Z,22.83
2022-09-27T06:33:34.816Z,23.83
2022-09-27T06:36:03.108Z,22.67
2022-09-27T06:38:47.421Z,22.50
2022-09-27T06:41:46.494Z,23.73
2022-09-27T06:44:20.152Z,28.03
2022-09-27T06:46:49.346Z,20.07
2022-09-27T06:49:17.369Z,18.33
2022-09-27T06:51:45.483Z,19.37
2022-09-27T06:54:13.396Z,20.27
2022-09-27T06:56:41.044Z,20.93
2022-09-27T06:59:40.809Z,21.40
2022-09-27T07:02:10.577Z,21.33
2022-09-27T07:04:38.203Z,18.93
2022-09-27T07:07:06.319Z,18.47
2022-09-27T07:09:34.712Z,17.33
2022-09-27T07:12:02.644Z,18.87
2022-09-27T07:14:34.522Z,19.00
2022-09-27T07:17:02.710Z,21.43
2022-09-27T07:19:32.128Z,28.73
2022-09-27T07:21:59.856Z,20.23
2022-09-27T07:24:27.644Z,20.13
2022-09-27T07:26:55.467Z,16.80
2022-09-27T07:29:23.204Z,19.80
2022-09-27T07:31:51.665Z,20.80
2022-09-27T07:34:21.639Z,16.00
2022-09-27T07:36:50.849Z,16.70
2022-09-27T07:39:18.619Z,16.37
2022-09-27T07:41:46.828Z,16.90
2022-09-27T07:44:16.366Z,16.97
2022-09-27T07:46:44.223Z,16.37
2022-09-27T07:49:11.972Z,16.07
2022-09-27T07:51:40.773Z,16.03
2022-09-27T07:54:10.020Z,17.07
2022-09-27T07:56:37.850Z,16.03
2022-09-27T07:59:05.605Z,17.50
2022-09-27T08:01:34.800Z,15.47
2022-09-27T08:04:03.150Z,17.47
2022-09-27T08:06:31.209Z,16.77
2022-09-27T08:08:59.745Z,19.70
2022-09-27T08:11:28.890Z,27.87
2022-09-27T08:13:57.188Z,21.20
2022-09-27T08:16:24.990Z,19.90
2022-09-27T08:18:52.754Z,17.50
2022-09-27T08:21:20.919Z,14.10
2022-09-27T08:23:48.750Z,17.17
2022-09-27T08:26:16.451Z,16.50
2022-09-27T08:28:45.623Z,16.07
2022-09-27T08:31:13.373Z,16.90
2022-09-27T08:33:41.819Z,16.93
2022-09-27T08:36:12.272Z,17.93
2022-09-27T08:38:40.590Z,18.37
2022-09-27T08:41:10.258Z,18.23
2022-09-27T08:43:40.379Z,15.67
2022-09-27T08:46:17.695Z,14.80
2022-09-27T08:48:46.819Z,16.47
2022-09-27T08:51:15.094Z,19.47
2022-09-27T08:53:44.609Z,15.63
2022-09-27T08:56:12.944Z,18.27
2022-09-27T08:58:42.611Z,18.27
2022-09-27T09:01:13.926Z,17.50
2022-09-27T09:03:46.684Z,18.00
2022-09-27T09:06:18.257Z,16.97
2022-09-27T09:08:52.777Z,14.33
2022-09-27T09:11:44.050Z,13.60
2022-09-27T09:14:27.339Z,17.90
2022-09-27T09:17:01.709Z,15.13
2022-09-27T09:19:39.126Z,14.57
2022-09-27T09:22:12.471Z,13.93
2022-09-27T09:24:44.856Z,18.10
2022-09-27T09:27:18.446Z,12.43
2022-09-27T09:29:57.148Z,11.63
2022-09-27T09:32:30.328Z,13.20
2022-09-27T09:35:01.848Z,11.23
2022-09-27T09:37:35.687Z,11.53
2022-09-27T09:40:09.231Z,10.77
2022-09-27T09:42:42.565Z,10.00
2022-09-27T09:45:17.774Z,10.27
2022-09-27T09:47:47.725Z,11.37
2022-09-27T09:50:18.067Z,11.33
2022-09-27T09:52:48.959Z,12.27
2022-09-27T09:55:19.238Z,14.60
2022-09-27T09:57:56.418Z,17.80
2022-09-27T10:00:25.210Z,12.67
2022-09-27T10:02:53.964Z,14.27
2022-09-27T10:05:24.493Z,19.60
2022-09-27T10:07:53.900Z,12.73
2022-09-27T10:10:22.601Z,12.27
2022-09-27T10:12:52.351Z,9.23
2022-09-27T10:15:22.926Z,9.20
2022-09-27T10:17:52.397Z,9.13
2022-09-27T10:20:27.032Z,8.77
2022-09-27T10:22:57.043Z,10.57
2022-09-27T10:25:24.806Z,9.67
2022-09-27T10:27:54.570Z,10.03
2022-09-27T10:30:24.056Z,8.90
2022-09-27T10:32:52.853Z,9.30
2022-09-27T10:35:23.782Z,8.60
2022-09-27T10:37:54.519Z,10.37
2022-09-27T10:40:29.935Z,9.37
2022-09-27T10:42:57.777Z,8.53
2022-09-27T10:45:29.793Z,10.57
2022-09-27T10:47:58.102Z,9.50
2022-09-27T10:50:48.939Z,9.57
2022-09-27T10:53:20.761Z,10.63
2022-09-27T10:55:49.542Z,9.83
2022-09-27T10:58:19.257Z,10.60
2022-09-27T11:00:55.430Z,10.70
2022-09-27T11:03:25.750Z,12.03
2022-09-27T11:05:54.865Z,9.63
2022-09-27T11:08:27.600Z,10.27
2022-09-27T11:11:02.747Z,10.90
2022-09-27T11:13:33.327Z,10.40
2022-09-27T11:16:08.262Z,10.93
2022-09-27T11:18:41.035Z,12.97
2022-09-27T11:21:14.606Z,11.87
2022-09-27T11:23:52.875Z,8.30
2022-09-27T11:26:28.362Z,10.07
2022-09-27T11:29:02.893Z,11.53
2022-09-27T11:31:37.664Z,12.60
2022-09-27T11:34:23.799Z,10.23
2022-09-27T11:37:04.257Z,9.03
2022-09-27T11:39:41.222Z,7.97
2022-09-27T11:42:19.698Z,8.10
2022-09-27T11:45:13.461Z,7.53
2022-09-27T11:47:47.539Z,9.50
2022-09-27T11:50:35.657Z,7.70
2022-09-27T11:53:12.270Z,7.80
2022-09-27T11:55:46.461Z,8.97
2022-09-27T11:58:20.236Z,9.43
2022-09-27T12:00:57.587Z,9.10
2022-09-27T12:03:49.346Z,7.80
2022-09-27T12:06:19.525Z,8.73
2022-09-27T12:08:51.452Z,7.77
2022-09-27T12:11:24.259Z,9.57
2022-09-27T12:13:55.406Z,7.77
2022-09-27T12:16:24.802Z,6.60
2022-09-27T12:18:53.425Z,5.73
2022-09-27T12:21:22.046Z,5.47
2022-09-27T12:23:50.912Z,6.87
2022-09-27T12:26:21.678Z,5.80
2022-09-27T12:28:52.325Z,5.47
2022-09-27T12:31:31.030Z,4.73
2022-09-27T12:34:08.873Z,4.93
2022-09-27T12:36:40.898Z,5.77
2022-09-27T12:39:14.516Z,4.50
2022-09-27T12:41:49.582Z,5.40
2022-09-27T12:44:18.952Z,4.97
2022-09-27T12:46:54.165Z,5.80
2022-09-27T12:49:29.477Z,5.30
2022-09-27T12:51:59.675Z,5.47
2022-09-27T12:54:44.382Z,5.10
2022-09-27T12:57:19.490Z,5.20
2022-09-27T12:59:53.523Z,4.80
2022-09-27T13:02:57.420Z,4.93
2022-09-27T13:05:47.204Z,5.53
2022-09-27T13:08:25.531Z,4.80
2022-09-27T13:10:57.843Z,5.17
2022-09-27T13:13:27.477Z,5.00
2022-09-27T13:15:59.428Z,4.40
2022-09-27T13:18:31.432Z,3.53
2022-09-27T13:20:59.162Z,4.30
2022-09-27T13:23:47.644Z,3.97
2022-09-27T13:26:23.316Z,3.55
2022-09-27T13:29:02.306Z,3.70
2022-09-27T13:31:51.105Z,3.85
2022-09-27T13:37:31.372Z,3.33
2022-09-27T13:40:15.266Z,3.42
2022-09-27T13:42:46.922Z,3.20
2022-09-27T13:45:29.031Z,2.97
2022-09-27T13:47:58.630Z,2.85
2022-09-27T13:50:29.047Z,3.13
2022-09-27T13:52:59.937Z,3.80
2022-09-27T13:55:46.330Z,3.40
2022-09-27T13:58:16.746Z,3.60
2022-09-27T14:00:46.122Z,3.63
2022-09-27T14:03:16.918Z,3.67
2022-09-27T14:05:48.501Z,3.45
2022-09-27T14:08:25.637Z,3.23
2022-09-27T14:11:00.051Z,2.80
2022-09-27T14:13:30.749Z,2.80
2022-09-27T14:16:00.418Z,2.60
2022-09-27T14:18:30.210Z,2.80
2022-09-27T14:21:09.562Z,2.83
2022-09-27T14:23:37.560Z,3.28
2022-09-27T14:26:06.765Z,2.40
2022-09-27T14:28:42.575Z,2.57
2022-09-27T14:31:17.511Z,2.37
2022-09-27T14:33:45.967Z,2.23
2022-09-27T14:36:38.994Z,2.20
2022-09-27T14:39:13.789Z,2.33
2022-09-27T14:41:43.259Z,2.40
2022-09-27T14:44:15.625Z,2.10
2022-09-27T14:46:44.024Z,2.30
2022-09-27T14:49:21.624Z,2.13
2022-09-27T14:51:52.916Z,2.30
2022-09-27T14:54:25.488Z,2.30
2022-09-27T14:56:57.015Z,2.90
2022-09-27T14:59:30.916Z,2.63
2022-09-27T15:02:01.264Z,3.03
2022-09-27T15:04:32.109Z,2.80
2022-09-27T15:07:02.349Z,2.93
2022-09-27T15:09:33.154Z,2.60
2022-09-27T15:12:05.359Z,2.80
2022-09-27T15:14:33.926Z,2.70
2022-09-27T15:17:06.132Z,3.40
2022-09-27T15:19:34.505Z,3.90
2022-09-27T15:22:17.074Z,2.00
2022-09-27T15:24:46.179Z,1.77
2022-09-27T15:27:17.475Z,1.10
2022-09-27T15:29:50.064Z,1.00
2022-09-27T15:32:18.808Z,1.93
2022-09-27T15:34:47.222Z,2.87
2022-09-27T15:37:26.958Z,2.27
2022-09-27T15:39:55.117Z,3.10
2022-09-27T15:42:24.313Z,3.37
2022-09-27T15:44:53.141Z,1.97
2022-09-27T15:47:40.890Z,2.47
2022-09-27T15:50:27.078Z,1.70
2022-09-27T15:52:56.203Z,2.40
2022-09-27T15:55:25.352Z,1.63
2022-09-27T15:57:58.246Z,2.00
2022-09-27T16:00:26.688Z,2.40
2022-09-27T16:02:55.038Z,2.23
2022-09-27T16:05:24.058Z,3.03
2022-09-27T16:07:51.941Z,3.03
2022-09-27T16:10:21.403Z,3.80
2022-09-27T16:12:49.250Z,3.63
2022-09-27T16:15:18.619Z,3.40
2022-09-27T16:17:46.718Z,3.53
2022-09-27T16:20:17.789Z,3.33
2022-09-27T16:22:45.492Z,5.27
2022-09-27T16:25:13.801Z,5.23
2022-09-27T16:27:41.687Z,3.70
2022-09-27T16:30:09.955Z,2.90
2022-09-27T16:32:42.681Z,2.73
2022-09-27T16:35:11.756Z,2.33
2022-09-27T16:37:40.031Z,4.33
2022-09-27T16:40:08.960Z,3.17
2022-09-27T16:42:36.976Z,2.83
2022-09-27T16:45:09.984Z,3.13
2022-09-27T16:47:39.683Z,2.63
2022-09-27T16:50:29.015Z,2.77
2022-09-27T16:52:56.830Z,2.50
2022-09-27T16:55:28.858Z,2.50
2022-09-27T16:57:59.047Z,2.50
2022-09-27T17:00:27.717Z,3.53
2022-09-27T17:02:56.053Z,3.30
2022-09-27T17:05:25.417Z,4.13
2022-09-27T17:07:53.922Z,3.73
2022-09-27T17:10:22.223Z,4.73
2022-09-27T17:12:50.028Z,4.07
2022-09-27T17:15:18.161Z,3.13
2022-09-27T17:17:48.602Z,3.57
2022-09-27T17:20:17.205Z,3.00
2022-09-27T17:22:46.547Z,3.00
2022-09-27T17:25:14.481Z,3.60
2022-09-27T17:27:42.450Z,4.77
2022-09-27T17:30:10.569Z,4.17
2022-09-27T17:32:38.646Z,4.70
2022-09-27T17:35:09.333Z,3.47
2022-09-27T17:37:37.542Z,7.93
2022-09-27T17:40:07.576Z,4.13
2022-09-27T17:42:35.587Z,4.13
2022-09-27T17:45:03.320Z,4.43
2022-09-27T17:47:49.114Z,5.40
2022-09-27T17:50:27.172Z,6.00
2022-09-27T17:52:55.613Z,5.20
2022-09-27T17:55:24.805Z,4.10
2022-09-27T17:57:53.471Z,4.30
2022-09-27T18:00:21.722Z,5.07
2022-09-27T18:02:50.348Z,5.10
2022-09-27T18:05:21.255Z,3.93
2022-09-27T18:07:49.772Z,5.33
2022-09-27T18:10:18.766Z,5.73
2022-09-27T18:12:48.219Z,5.53
2022-09-27T18:15:21.789Z,6.67
2022-09-27T18:17:58.319Z,6.60
2022-09-27T18:20:26.437Z,7.17
2022-09-27T18:22:54.644Z,7.57
2022-09-27T18:25:25.908Z,6.17
2022-09-27T18:27:55.891Z,6.87
2022-09-27T18:30:23.694Z,6.77
2022-09-27T18:32:51.924Z,7.80
2022-09-27T18:35:21.463Z,8.37
2022-09-27T18:37:49.366Z,7.80
2022-09-27T18:40:32.417Z,9.77
2022-09-27T18:43:08.258Z,13.37
2022-09-27T18:45:37.948Z,12.50
2022-09-27T18:48:07.286Z,16.77
2022-09-27T18:50:39.026Z,18.30
2022-09-27T18:53:08.585Z,14.80
2022-09-27T18:55:38.028Z,12.17
2022-09-27T18:58:06.561Z,9.63
2022-09-27T19:00:38.490Z,7.67
2022-09-27T19:03:06.623Z,11.30
2022-09-27T19:05:35.082Z,11.63
2022-09-27T19:08:03.172Z,14.30
2022-09-27T19:10:31.068Z,14.37
2022-09-27T19:12:59.223Z,12.77
2022-09-27T19:15:27.423Z,13.27
2022-09-27T19:17:58.013Z,12.33
2022-09-27T19:20:25.873Z,13.27
2022-09-27T19:22:55.238Z,11.83
2022-09-27T19:25:23.254Z,12.03
2022-09-27T19:27:51.618Z,12.43
2022-09-27T19:30:20.157Z,12.37
2022-09-27T19:32:48.059Z,12.60
2022-09-27T19:35:18.594Z,12.87
2022-09-27T19:37:46.437Z,12.33
2022-09-27T19:40:14.480Z,11.87
2022-09-27T19:42:42.644Z,12.03
2022-09-27T19:45:12.715Z,11.07
2022-09-27T19:47:40.463Z,10.83
2022-09-27T19:50:10.507Z,12.37
2022-09-27T19:52:39.878Z,12.97
2022-09-27T19:55:09.388Z,12.40
2022-09-27T19:57:37.851Z,10.17
2022-09-27T20:00:06.937Z,12.27
2022-09-27T20:02:35.048Z,11.83
2022-09-27T20:05:03.026Z,12.50
2022-09-27T20:07:32.765Z,11.37
2022-09-27T20:10:02.553Z,11.83
2022-09-27T20:12:31.768Z,12.77
2022-09-27T20:14:59.861Z,11.87
2022-09-27T20:17:27.744Z,11.43
2022-09-27T20:19:55.785Z,10.87
2022-09-27T20:22:23.990Z,10.77
2022-09-27T20:24:52.062Z,11.33
2022-09-27T20:27:21.817Z,10.60
2022-09-27T20:29:49.527Z,10.77
2022-09-27T20:32:27.308Z,11.80
2022-09-27T20:34:56.134Z,11.70
2022-09-27T20:37:24.447Z,12.80
2022-09-27T20:39:54.256Z,10.97
2022-09-27T20:42:23.627Z,10.80
2022-09-27T20:44:54.468Z,10.80
2022-09-27T20:47:23.169Z,12.40
2022-09-27T20:49:51.326Z,15.83
2022-09-27T20:52:20.984Z,15.07
2022-09-27T20:54:48.917Z,16.43
2022-09-27T20:57:16.640Z,15.40
2022-09-27T20:59:45.772Z,13.90
2022-09-27T21:02:13.658Z,14.17
2022-09-27T21:04:41.362Z,13.80
2022-09-27T21:07:09.175Z,14.10
2022-09-27T21:09:38.783Z,13.83
2022-09-27T21:12:06.645Z,12.63
2022-09-27T21:14:40.889Z,12.50
2022-09-27T21:17:10.018Z,13.73
2022-09-27T21:19:38.018Z,13.90
2022-09-27T21:22:06.116Z,14.33
2022-09-27T21:24:33.996Z,13.17
2022-09-27T21:27:01.845Z,14.90
2022-09-27T21:29:32.178Z,14.00
2022-09-27T21:32:00.232Z,13.77
2022-09-27T21:34:29.711Z,13.50
2022-09-27T21:36:57.633Z,16.90
2022-09-27T21:39:25.360Z,15.20
2022-09-27T21:41:54.457Z,17.07
2022-09-27T21:44:22.549Z,19.20
2022-09-27T21:46:52.058Z,23.63
2022-09-27T21:49:20.990Z,19.03
2022-09-27T21:51:50.529Z,18.27
2022-09-27T21:54:19.273Z,19.53
2022-09-27T21:56:47.225Z,21.27
2022-09-27T21:59:16.239Z,17.03
2022-09-27T22:01:44.875Z,21.43
2022-09-27T22:04:12.977Z,18.60
2022-09-27T22:06:41.210Z,20.80
2022-09-27T22:09:13.812Z,19.97
2022-09-27T22:11:44.324Z,20.93
2022-09-27T22:14:12.694Z,20.83
2022-09-27T22:16:41.652Z,21.87
2022-09-27T22:19:11.221Z,20.30
2022-09-27T22:21:39.637Z,16.40
2022-09-27T22:24:09.644Z,17.47
2022-09-27T22:26:40.464Z,18.03
2022-09-27T22:29:09.329Z,19.63
2022-09-27T22:31:37.588Z,18.73
2022-09-27T22:34:10.973Z,16.60
2022-09-27T22:36:38.860Z,17.73
2022-09-27T22:39:06.971Z,17.73
2022-09-27T22:41:34.996Z,18.63
2022-09-27T22:44:04.287Z,18.17
2022-09-27T22:46:33.992Z,19.23
2022-09-27T22:49:02.024Z,17.53
2022-09-27T22:51:29.911Z,17.30
2022-09-27T22:53:57.915Z,18.87
2022-09-27T22:56:25.759Z,17.77
2022-09-27T22:58:53.629Z,17.20
2022-09-27T23:01:24.238Z,18.40
2022-09-27T23:03:52.675Z,18.10
2022-09-27T23:06:21.947Z,18.53
2022-09-27T23:08:52.332Z,17.03
2022-09-27T23:11:20.959Z,18.57
2022-09-27T23:13:49.821Z,17.40
2022-09-27T23:16:18.480Z,17.87
2022-09-27T23:18:48.377Z,18.00
2022-09-27T23:21:17.392Z,17.80
2022-09-27T23:23:46.080Z,15.10
2022-09-27T23:26:14.810Z,16.67
2022-09-27T23:28:43.021Z,15.57
2022-09-27T23:31:11.780Z,11.00
2022-09-27T23:33:41.692Z,10.90
2022-09-27T23:36:15.192Z,9.37
2022-09-27T23:38:45.608Z,8.97
2022-09-27T23:41:13.975Z,9.07
2022-09-27T23:43:43.933Z,8.50
2022-09-27T23:46:12.421Z,8.83
2022-09-27T23:48:40.559Z,8.47
2022-09-27T23:51:10.211Z,9.50
2022-09-27T23:53:39.842Z,9.73
2022-09-27T23:56:08.539Z,8.90
2022-09-27T23:58:37.489Z,8.10
